Main page
METAR-TAF:

METAR-TAF

Airports :

Örebro Airport

Örebro, Sweden

latitude: 59-14N, longitude: 015-03E, elevation: 57 m

Current weather observation

The report was made 22 minutes ago, at 09:50 UTC
Wind 6 kt from the West/Southwest
Temperature 3°C
Humidity 81%
Pressure 1024 hPa
Visibility 10 km or more
no clouds below 1500 m and no cumulonimbus

METAR: ESOE 190950Z 25006KT CAVOK 03/M00 Q1024

Time: 11:12 (10:12 UTC)

Forecast

The report was made 1 hour and 42 minutes ago, at 08:30 UTC
Forecast valid from 19 at 09 UTC to 19 at 15 UTC
Wind 8 kt from the West
Visibility 10 km or more
no clouds below 1500 m and no cumulonimbus

TAF: ESOE 190830Z 1909/1915 26008KT CAVOK

Weather observations and forecasts of more than 4000 airports (METAR and TAF reports).

The available stations are represented by yellow and red dots on the map.

Hover mouse over dot to see the name of the station.

Then click to see weather observations and forecasts.

To change the map : click on the green buttons with a black cross to zoom in, on the green button with a dash to zoom out, or on the green arrows for adjacent maps.


METAR-TAF: